createdAt,value
2023-02-02T00:02:20.296Z,99030.28
2023-02-02T00:04:47.854Z,99028.75
2023-02-02T00:07:15.106Z,99054.22
2023-02-02T00:09:42.508Z,99045.81
2023-02-02T00:12:10.296Z,99022.31
2023-02-02T00:14:37.608Z,99036.47
2023-02-02T00:17:05.020Z,99033.59
2023-02-02T00:19:33.447Z,99021.84
2023-02-02T00:22:00.703Z,99021.81
2023-02-02T00:24:28.211Z,99003.81
2023-02-02T00:26:56.836Z,99001.97
2023-02-02T00:29:27.839Z,99003.44
2023-02-02T00:31:55.173Z,98994.03
2023-02-02T00:34:23.082Z,99009.63
2023-02-02T00:36:50.659Z,99014.09
2023-02-02T00:39:20.513Z,99003.72
2023-02-02T00:41:48.447Z,98991.31
2023-02-02T00:44:34.140Z,99000.72
2023-02-02T00:47:01.715Z,99004.00
2023-02-02T00:49:28.952Z,99014.56
2023-02-02T00:51:56.148Z,99024.53
2023-02-02T00:54:23.626Z,99019.47
2023-02-02T00:56:50.823Z,99015.09
2023-02-02T00:59:17.995Z,99020.13
2023-02-02T01:01:46.170Z,99034.22
2023-02-02T01:04:13.427Z,99035.97
2023-02-02T01:06:40.634Z,99038.31
2023-02-02T01:09:08.978Z,99041.88
2023-02-02T01:11:36.719Z,99050.13
2023-02-02T01:14:04.069Z,99046.56
2023-02-02T01:16:31.628Z,99054.31
2023-02-02T01:18:58.864Z,99041.50
2023-02-02T01:21:26.147Z,99041.69
2023-02-02T01:23:53.598Z,99046.38
2023-02-02T01:26:20.862Z,99047.28
2023-02-02T01:28:48.042Z,99053.28
2023-02-02T01:31:16.986Z,99062.53
2023-02-02T01:33:44.956Z,99056.63
2023-02-02T01:36:14.015Z,99051.72
2023-02-02T01:38:42.448Z,99062.28
2023-02-02T01:41:12.547Z,99064.09
2023-02-02T01:43:46.072Z,99065.06
2023-02-02T01:46:18.722Z,99061.88
2023-02-02T01:48:47.925Z,99038.72
2023-02-02T01:51:17.451Z,99024.91
2023-02-02T01:53:46.492Z,99028.09
2023-02-02T01:56:16.665Z,99041.41
2023-02-02T01:58:45.173Z,99036.97
2023-02-02T02:01:13.332Z,99036.28
2023-02-02T02:03:41.291Z,99025.81
2023-02-02T02:06:11.281Z,99020.72
2023-02-02T02:08:49.650Z,99021.47
2023-02-02T02:11:18.581Z,99015.56
2023-02-02T02:14:04.893Z,99019.19
2023-02-02T02:16:50.504Z,99002.87
2023-02-02T02:19:36.304Z,99003.81
2023-02-02T02:22:40.508Z,98989.91
2023-02-02T02:25:38.886Z,98991.69
2023-02-02T02:28:06.596Z,98978.13
2023-02-02T02:30:53.037Z,98984.94
2023-02-02T02:33:26.300Z,99008.69
2023-02-02T02:36:06.161Z,99030.91
2023-02-02T02:38:39.924Z,99017.22
2023-02-02T02:41:28.894Z,99014.62
2023-02-02T02:44:01.392Z,99014.72
2023-02-02T02:46:28.743Z,99002.69
2023-02-02T02:48:58.234Z,98997.41
2023-02-02T02:51:45.930Z,99003.19
2023-02-02T02:54:17.492Z,99011.88
2023-02-02T02:56:54.543Z,99020.22
2023-02-02T02:59:25.001Z,99009.00
2023-02-02T03:02:01.843Z,99016.84
2023-02-02T03:04:37.332Z,99015.91
2023-02-02T03:07:08.658Z,99014.47
2023-02-02T03:09:38.225Z,99010.28
2023-02-02T03:12:06.110Z,99004.44
2023-02-02T03:14:36.778Z,98995.37
2023-02-02T03:17:04.052Z,98990.34
2023-02-02T03:19:31.673Z,98997.63
2023-02-02T03:21:58.982Z,99002.00
2023-02-02T03:24:26.259Z,99014.16
2023-02-02T03:26:53.872Z,99020.88
2023-02-02T03:29:21.139Z,99027.06
2023-02-02T03:31:48.595Z,99024.41
2023-02-02T03:34:16.190Z,99018.50
2023-02-02T03:36:43.450Z,99019.19
2023-02-02T03:39:10.723Z,99021.94
2023-02-02T03:41:38.335Z,99019.34
2023-02-02T03:44:05.600Z,99028.25
2023-02-02T03:46:32.976Z,99032.53
2023-02-02T03:49:00.581Z,99028.09
2023-02-02T03:51:27.852Z,99035.94
2023-02-02T03:53:55.100Z,99032.66
2023-02-02T03:56:22.643Z,99036.47
2023-02-02T03:58:50.109Z,99027.81
2023-02-02T04:01:17.350Z,99015.84
2023-02-02T04:03:46.326Z,99015.84
2023-02-02T04:06:13.568Z,99005.50
2023-02-02T04:08:40.844Z,99017.91
2023-02-02T04:11:11.534Z,99005.22
2023-02-02T04:13:39.970Z,99011.31
2023-02-02T04:16:07.570Z,99011.38
2023-02-02T04:18:34.909Z,99015.88
2023-02-02T04:21:02.151Z,99008.31
2023-02-02T04:23:30.653Z,99010.84
2023-02-02T04:25:58.319Z,99024.84
2023-02-02T04:28:26.579Z,99021.41
2023-02-02T04:30:54.980Z,99021.41
2023-02-02T04:33:23.443Z,99009.34
2023-02-02T04:35:50.767Z,99019.84
2023-02-02T04:38:18.370Z,99016.47
2023-02-02T04:40:46.605Z,99019.28
2023-02-02T04:43:14.113Z,99018.59
2023-02-02T04:45:42.439Z,99011.91
2023-02-02T04:48:09.880Z,99008.38
2023-02-02T04:50:37.400Z,98997.91
2023-02-02T04:53:05.047Z,98997.06
2023-02-02T04:55:36.053Z,98994.53
2023-02-02T04:58:03.536Z,99005.91
2023-02-02T05:00:31.099Z,98999.91
2023-02-02T05:02:58.405Z,99004.34
2023-02-02T05:05:25.943Z,98994.09
2023-02-02T05:07:53.655Z,98993.34
2023-02-02T05:10:20.930Z,98980.28
2023-02-02T05:12:48.221Z,98976.97
2023-02-02T05:15:15.987Z,98978.13
2023-02-02T05:17:43.258Z,98987.87
2023-02-02T05:20:10.908Z,98987.31
2023-02-02T05:22:38.694Z,98991.94
2023-02-02T05:25:06.865Z,98979.09
2023-02-02T05:27:34.593Z,98992.09
2023-02-02T05:30:02.206Z,98994.22
2023-02-02T05:32:29.906Z,98994.84
2023-02-02T05:34:57.219Z,98993.59
2023-02-02T05:37:24.805Z,98993.06
2023-02-02T05:39:53.713Z,98992.91
2023-02-02T05:42:20.964Z,99002.00
2023-02-02T05:44:48.506Z,98994.31
2023-02-02T05:47:15.965Z,98989.50
2023-02-02T05:49:43.194Z,98988.75
2023-02-02T05:52:15.559Z,98991.53
2023-02-02T05:54:42.819Z,98996.69
2023-02-02T05:57:10.119Z,98998.56
2023-02-02T05:59:37.745Z,99011.78
2023-02-02T06:02:05.053Z,99009.97
2023-02-02T06:04:32.589Z,99016.19
2023-02-02T06:06:59.932Z,99010.16
2023-02-02T06:09:27.209Z,99016.25
2023-02-02T06:11:54.756Z,99013.59
2023-02-02T06:14:22.028Z,99008.47
2023-02-02T06:16:49.276Z,99018.00
2023-02-02T06:19:16.874Z,99015.47
2023-02-02T06:21:44.239Z,99024.97
2023-02-02T06:24:11.501Z,99020.72
2023-02-02T06:26:39.119Z,99033.66
2023-02-02T06:29:06.915Z,99042.34
2023-02-02T06:31:34.504Z,99045.66
2023-02-02T06:34:02.162Z,99047.41
2023-02-02T06:36:29.359Z,99055.16
2023-02-02T06:38:57.323Z,99056.00
2023-02-02T06:41:24.921Z,99056.87
2023-02-02T06:43:52.149Z,99075.00
2023-02-02T06:46:19.457Z,99056.78
2023-02-02T06:48:46.974Z,99053.34
2023-02-02T06:51:14.451Z,99061.16
2023-02-02T06:53:41.610Z,99060.22
2023-02-02T06:56:12.113Z,99054.25
2023-02-02T06:58:39.410Z,99061.84
2023-02-02T07:01:10.809Z,99075.78
2023-02-02T07:03:38.677Z,99084.25
2023-02-02T07:06:16.440Z,99079.06
2023-02-02T07:08:44.282Z,99083.19
2023-02-02T07:11:15.896Z,99098.75
2023-02-02T07:13:44.737Z,99106.44
2023-02-02T07:16:15.164Z,99101.37
2023-02-02T07:18:47.572Z,99103.72
2023-02-02T07:21:17.148Z,99105.22
2023-02-02T07:23:44.373Z,99092.13
2023-02-02T07:26:12.400Z,99097.19
2023-02-02T07:28:39.965Z,99094.50
2023-02-02T07:31:18.018Z,99093.63
2023-02-02T07:33:46.112Z,99088.53
2023-02-02T07:36:16.209Z,99084.75
2023-02-02T07:38:43.799Z,99080.25
2023-02-02T07:41:11.732Z,99078.56
2023-02-02T07:43:39.344Z,99082.03
2023-02-02T07:46:09.916Z,99094.84
2023-02-02T07:48:37.657Z,99090.41
2023-02-02T07:51:06.291Z,99094.50
2023-02-02T07:53:34.080Z,99103.00
2023-02-02T07:56:09.106Z,99108.91
2023-02-02T07:58:37.005Z,99109.75
2023-02-02T08:01:05.808Z,99111.22
2023-02-02T08:03:34.113Z,99129.31
2023-02-02T08:06:01.720Z,99126.56
2023-02-02T08:08:28.999Z,99111.53
2023-02-02T08:10:56.566Z,99112.16
2023-02-02T08:13:23.846Z,99131.87
2023-02-02T08:15:51.198Z,99110.16
2023-02-02T08:18:18.849Z,99123.97
2023-02-02T08:20:46.295Z,99127.19
2023-02-02T08:23:15.935Z,99128.16
2023-02-02T08:25:43.545Z,99133.38
2023-02-02T08:28:10.847Z,99124.50
2023-02-02T08:30:38.015Z,99130.53
2023-02-02T08:33:05.606Z,99127.62
2023-02-02T08:35:32.856Z,99135.94
2023-02-02T08:38:02.990Z,99130.16
2023-02-02T08:40:30.600Z,99138.44
2023-02-02T08:42:57.839Z,99141.59
2023-02-02T08:46:01.351Z,99137.44
2023-02-02T08:48:14.430Z,99137.81
2023-02-02T08:50:41.707Z,99117.19
2023-02-02T08:53:08.983Z,99121.97
2023-02-02T08:55:36.597Z,99122.63
2023-02-02T08:58:03.872Z,99121.59
2023-02-02T09:00:31.176Z,99121.41
2023-02-02T09:02:58.769Z,99131.47
2023-02-02T09:05:26.446Z,99128.66
2023-02-02T09:07:54.021Z,99123.94
2023-02-02T09:10:21.716Z,99130.97
2023-02-02T09:12:49.004Z,99131.66
2023-02-02T09:15:16.294Z,99124.81
2023-02-02T09:17:43.849Z,99131.31
2023-02-02T09:20:11.465Z,99126.25
2023-02-02T09:22:38.725Z,99132.31
2023-02-02T09:25:06.369Z,99138.00
2023-02-02T09:27:37.264Z,99143.94
2023-02-02T09:30:04.688Z,99141.22
2023-02-02T09:32:32.272Z,99134.09
2023-02-02T09:35:00.389Z,99133.28
2023-02-02T09:37:27.683Z,99146.03
2023-02-02T09:39:56.170Z,99134.56
2023-02-02T09:42:38.356Z,99140.13
2023-02-02T09:45:24.450Z,99150.38
2023-02-02T09:47:53.609Z,99143.62
2023-02-02T09:50:27.470Z,99144.75
2023-02-02T09:53:13.532Z,99153.84
2023-02-02T09:55:46.067Z,99149.13
2023-02-02T09:58:19.240Z,99159.66
2023-02-02T10:00:51.245Z,99158.97
2023-02-02T10:03:24.684Z,99162.34
2023-02-02T10:05:55.932Z,99184.03
2023-02-02T10:08:52.786Z,99173.94
2023-02-02T10:11:25.847Z,99177.28
2023-02-02T10:13:56.377Z,99176.03
2023-02-02T10:16:24.533Z,99181.38
2023-02-02T10:19:01.432Z,99185.66
2023-02-02T10:21:55.070Z,99191.22
2023-02-02T10:24:24.054Z,99185.06
2023-02-02T10:26:56.554Z,99196.03
2023-02-02T10:29:23.844Z,99194.00
2023-02-02T10:31:57.296Z,99189.06
2023-02-02T10:34:40.520Z,99184.34
2023-02-02T10:37:14.147Z,99180.19
2023-02-02T10:39:57.178Z,99178.87
2023-02-02T10:42:45.478Z,99169.31
2023-02-02T10:45:18.283Z,99187.59
2023-02-02T10:47:45.824Z,99167.03
2023-02-02T10:50:13.584Z,99196.84
2023-02-02T10:52:43.999Z,99206.84
2023-02-02T10:55:14.183Z,99208.63
2023-02-02T10:58:01.434Z,99193.59
2023-02-02T11:00:47.504Z,99188.78
2023-02-02T11:03:16.331Z,99184.34
2023-02-02T11:06:02.386Z,99183.28
2023-02-02T11:08:41.277Z,99181.09
2023-02-02T11:11:11.516Z,99180.00
2023-02-02T11:13:45.383Z,99189.47
2023-02-02T11:16:15.601Z,99196.06
2023-02-02T11:18:44.264Z,99203.91
2023-02-02T11:21:23.691Z,99193.75
2023-02-02T11:23:55.484Z,99186.09
2023-02-02T11:26:24.400Z,99182.66
2023-02-02T11:28:53.829Z,99179.94
2023-02-02T11:31:37.665Z,99193.78
2023-02-02T11:34:25.443Z,99194.00
2023-02-02T11:37:01.566Z,99190.94
2023-02-02T11:39:29.568Z,99189.41
2023-02-02T11:42:16.789Z,99186.47
2023-02-02T11:44:48.863Z,99184.22
2023-02-02T11:47:22.893Z,99181.88
2023-02-02T11:49:52.421Z,99173.75
2023-02-02T11:52:24.835Z,99176.47
2023-02-02T11:54:55.104Z,99165.59
2023-02-02T11:57:23.487Z,99169.06
2023-02-02T11:59:52.255Z,99178.87
2023-02-02T12:02:19.957Z,99167.16
2023-02-02T12:04:48.428Z,99165.00
2023-02-02T12:07:28.140Z,99163.41
2023-02-02T12:10:04.864Z,99161.47
2023-02-02T12:12:50.982Z,99170.53
2023-02-02T12:15:46.111Z,99176.19
2023-02-02T12:18:16.097Z,99171.56
2023-02-02T12:20:55.914Z,99179.03
2023-02-02T12:23:23.105Z,99162.78
2023-02-02T12:26:02.923Z,99163.59
2023-02-02T12:28:33.268Z,99166.41
2023-02-02T12:31:09.823Z,99165.72
2023-02-02T12:33:37.096Z,99166.25
2023-02-02T12:36:16.601Z,99167.81
2023-02-02T12:38:55.377Z,99170.31
2023-02-02T12:41:42.367Z,99153.09
2023-02-02T12:44:09.641Z,99169.84
2023-02-02T12:46:55.973Z,99166.91
2023-02-02T12:49:26.245Z,99164.69
2023-02-02T12:52:08.186Z,99176.03
2023-02-02T12:54:44.365Z,99168.28
2023-02-02T12:57:33.474Z,99171.84
2023-02-02T13:00:13.495Z,99171.50
2023-02-02T13:02:59.624Z,99178.78
2023-02-02T13:05:38.444Z,99175.50
2023-02-02T13:08:21.504Z,99173.66
2023-02-02T13:10:54.053Z,99163.59
2023-02-02T13:13:27.367Z,99180.25
2023-02-02T13:16:00.195Z,99184.47
2023-02-02T13:18:30.431Z,99202.94
2023-02-02T13:21:00.484Z,99194.03
2023-02-02T13:23:32.588Z,99187.00
2023-02-02T13:25:59.794Z,99182.00
2023-02-02T13:28:33.176Z,99183.16
2023-02-02T13:31:05.414Z,99186.37
2023-02-02T13:33:35.900Z,99181.16
2023-02-02T13:36:10.136Z,99185.66
2023-02-02T13:38:42.182Z,99182.47
2023-02-02T13:41:14.582Z,99190.09
2023-02-02T13:43:50.975Z,99177.41
2023-02-02T13:46:21.359Z,99186.25
2023-02-02T13:48:54.988Z,99181.00
2023-02-02T13:51:30.461Z,99172.53
2023-02-02T13:54:12.003Z,99160.25
2023-02-02T13:56:45.767Z,99176.28
2023-02-02T13:59:31.703Z,99169.44
2023-02-02T14:01:59.589Z,99165.19
2023-02-02T14:04:31.196Z,99169.59
2023-02-02T14:07:06.943Z,99171.31
2023-02-02T14:09:37.389Z,99167.97
2023-02-02T14:12:08.917Z,99170.87
2023-02-02T14:14:38.933Z,99174.59
2023-02-02T14:17:26.520Z,99182.66
2023-02-02T14:20:17.229Z,99180.28
2023-02-02T14:22:44.688Z,99178.00
2023-02-02T14:25:33.498Z,99177.59
2023-02-02T14:28:01.615Z,99175.94
2023-02-02T14:30:32.669Z,99182.91
2023-02-02T14:33:18.422Z,99184.31
2023-02-02T14:35:45.944Z,99186.53
2023-02-02T14:38:30.102Z,99181.50
2023-02-02T14:41:36.347Z,99187.75
2023-02-02T14:44:05.113Z,99183.50
2023-02-02T14:46:34.830Z,99184.84
2023-02-02T14:49:02.184Z,99180.41
2023-02-02T14:51:31.222Z,99172.22
2023-02-02T14:54:03.475Z,99170.00
2023-02-02T14:56:39.631Z,99179.72
2023-02-02T14:59:16.083Z,99169.75
2023-02-02T15:01:44.645Z,99172.69
2023-02-02T15:04:21.433Z,99174.62
2023-02-02T15:06:49.311Z,99167.06
2023-02-02T15:09:19.988Z,99176.53
2023-02-02T15:12:01.079Z,99183.69
2023-02-02T15:14:31.837Z,99177.78
2023-02-02T15:17:03.239Z,99176.22
2023-02-02T15:19:34.327Z,99174.81
2023-02-02T15:22:06.957Z,99188.72
2023-02-02T15:24:36.123Z,99180.28
2023-02-02T15:27:04.704Z,99192.63
2023-02-02T15:29:31.954Z,99190.12
2023-02-02T15:32:00.503Z,99197.38
2023-02-02T15:34:39.056Z,99196.62
2023-02-02T15:37:08.442Z,99198.66
2023-02-02T15:39:41.852Z,99205.56
2023-02-02T15:42:33.791Z,99211.13
2023-02-02T15:45:01.084Z,99210.59
2023-02-02T15:47:33.651Z,99215.69
2023-02-02T15:50:01.625Z,99217.44
2023-02-02T15:52:33.071Z,99226.22
2023-02-02T15:55:00.458Z,99212.44
2023-02-02T15:57:35.710Z,99210.00
2023-02-02T16:00:23.564Z,99215.31
2023-02-02T16:02:54.259Z,99231.91
2023-02-02T16:05:36.592Z,99232.94
2023-02-02T16:08:11.899Z,99227.84
2023-02-02T16:10:39.253Z,99235.62
2023-02-02T16:13:06.924Z,99226.09
2023-02-02T16:15:34.290Z,99242.78
2023-02-02T16:18:15.377Z,99235.81
2023-02-02T16:20:43.162Z,99250.53
2023-02-02T16:23:16.257Z,99244.50
2023-02-02T16:25:48.448Z,99252.41
2023-02-02T16:28:17.764Z,99255.22
2023-02-02T16:30:45.684Z,99257.94
2023-02-02T16:33:28.224Z,99268.31
2023-02-02T16:35:56.030Z,99275.31
2023-02-02T16:38:24.918Z,99254.63
2023-02-02T16:41:11.813Z,99264.09
2023-02-02T16:43:40.290Z,99262.47
2023-02-02T16:46:08.700Z,99259.72
2023-02-02T16:48:37.113Z,99267.81
2023-02-02T16:51:04.943Z,99270.47
2023-02-02T16:53:32.231Z,99275.81
2023-02-02T16:55:59.463Z,99291.47
2023-02-02T16:58:27.479Z,99295.06
2023-02-02T17:01:13.507Z,99286.31
2023-02-02T17:03:47.613Z,99301.06
2023-02-02T17:06:14.938Z,99308.16
2023-02-02T17:08:42.563Z,99310.78
2023-02-02T17:11:21.848Z,99322.22
2023-02-02T17:13:50.934Z,99335.06
2023-02-02T17:16:20.046Z,99344.06
2023-02-02T17:18:47.888Z,99350.97
2023-02-02T17:21:18.003Z,99350.22
2023-02-02T17:23:45.383Z,99362.38
2023-02-02T17:26:12.843Z,99371.00
2023-02-02T17:28:41.299Z,99392.56
2023-02-02T17:31:10.002Z,99395.19
2023-02-02T17:33:38.050Z,99406.28
2023-02-02T17:36:06.075Z,99410.66
2023-02-02T17:38:33.442Z,99426.38
2023-02-02T17:41:02.126Z,99416.00
2023-02-02T17:43:30.417Z,99431.53
2023-02-02T17:45:58.038Z,99436.78
2023-02-02T17:48:25.391Z,99446.38
2023-02-02T17:50:52.941Z,99457.72
2023-02-02T17:53:21.139Z,99457.69
2023-02-02T17:55:49.934Z,99465.44
2023-02-02T17:58:18.109Z,99469.63
2023-02-02T18:00:46.697Z,99457.41
2023-02-02T18:03:17.903Z,99465.84
2023-02-02T18:05:45.344Z,99473.69
2023-02-02T18:08:12.912Z,99478.16
2023-02-02T18:10:41.224Z,99477.31
2023-02-02T18:13:12.597Z,99483.25
2023-02-02T18:15:42.881Z,99497.16
2023-02-02T18:18:12.441Z,99499.06
2023-02-02T18:20:46.723Z,99495.59
2023-02-02T18:23:14.590Z,99483.37
2023-02-02T18:25:41.958Z,99496.22
2023-02-02T18:28:10.435Z,99505.84
2023-02-02T18:30:38.755Z,99504.28
2023-02-02T18:33:07.757Z,99505.87
2023-02-02T18:35:35.409Z,99503.28
2023-02-02T18:38:03.080Z,99503.16
2023-02-02T18:40:30.371Z,99498.06
2023-02-02T18:42:57.702Z,99499.00
2023-02-02T18:45:25.637Z,99491.06
2023-02-02T18:47:53.094Z,99495.50
2023-02-02T18:50:22.028Z,99498.25
2023-02-02T18:52:49.768Z,99500.28
2023-02-02T18:55:17.152Z,99500.44
2023-02-02T18:57:44.520Z,99504.84
2023-02-02T19:00:12.336Z,99505.87
2023-02-02T19:02:39.547Z,99506.59
2023-02-02T19:05:26.097Z,99506.03
2023-02-02T19:07:56.622Z,99512.91
2023-02-02T19:10:25.500Z,99530.34
2023-02-02T19:12:52.870Z,99525.12
2023-02-02T19:15:20.713Z,99526.25
2023-02-02T19:17:50.495Z,99520.09
2023-02-02T19:20:21.547Z,99515.66
2023-02-02T19:22:49.541Z,99516.62
2023-02-02T19:25:17.546Z,99511.53
2023-02-02T19:27:45.004Z,99514.22
2023-02-02T19:30:18.299Z,99525.47
2023-02-02T19:32:45.930Z,99519.38
2023-02-02T19:35:32.099Z,99520.37
2023-02-02T19:38:01.310Z,99520.44
2023-02-02T19:40:29.126Z,99509.09
2023-02-02T19:42:59.296Z,99513.56
2023-02-02T19:45:31.461Z,99519.69
2023-02-02T19:48:00.598Z,99519.69
2023-02-02T19:50:32.768Z,99524.91
2023-02-02T19:53:02.358Z,99538.09
2023-02-02T19:55:34.891Z,99540.59
2023-02-02T19:58:13.779Z,99540.66
2023-02-02T20:00:44.995Z,99550.22
2023-02-02T20:03:15.887Z,99548.59
2023-02-02T20:05:44.989Z,99564.22
2023-02-02T20:08:20.904Z,99556.50
2023-02-02T20:10:48.310Z,99549.59
2023-02-02T20:13:16.141Z,99552.25
2023-02-02T20:15:43.544Z,99557.47
2023-02-02T20:18:17.188Z,99554.03
2023-02-02T20:20:47.580Z,99568.81
2023-02-02T20:23:27.173Z,99573.09
2023-02-02T20:25:55.300Z,99568.88
2023-02-02T20:28:31.389Z,99575.84
2023-02-02T20:30:59.022Z,99579.34
2023-02-02T20:33:27.440Z,99585.41
2023-02-02T20:35:55.070Z,99590.53
2023-02-02T20:38:24.649Z,99591.53
2023-02-02T20:40:53.231Z,99595.91
2023-02-02T20:43:21.149Z,99591.66
2023-02-02T20:45:49.111Z,99593.50
2023-02-02T20:48:16.488Z,99594.31
2023-02-02T20:50:44.174Z,99609.06
2023-02-02T20:53:14.758Z,99608.16
2023-02-02T20:55:42.831Z,99622.97
2023-02-02T20:58:11.372Z,99617.78
2023-02-02T21:00:39.366Z,99622.19
2023-02-02T21:03:06.653Z,99625.63
2023-02-02T21:05:34.005Z,99625.59
2023-02-02T21:08:01.552Z,99617.03
2023-02-02T21:10:29.055Z,99629.28
2023-02-02T21:12:56.554Z,99633.56
2023-02-02T21:15:25.610Z,99637.81
2023-02-02T21:17:53.114Z,99631.72
2023-02-02T21:20:20.469Z,99642.13
2023-02-02T21:22:48.382Z,99648.16
2023-02-02T21:25:15.707Z,99650.81
2023-02-02T21:27:44.551Z,99649.00
2023-02-02T21:30:13.185Z,99650.91
2023-02-02T21:32:40.453Z,99656.22
2023-02-02T21:35:07.880Z,99649.25
2023-02-02T21:37:36.742Z,99652.75
2023-02-02T21:40:12.160Z,99657.16
2023-02-02T21:42:43.864Z,99660.72
2023-02-02T21:45:20.186Z,99654.44
2023-02-02T21:47:51.438Z,99653.66
2023-02-02T21:50:20.127Z,99662.38
2023-02-02T21:52:47.754Z,99656.31
2023-02-02T21:55:35.570Z,99665.94
2023-02-02T21:58:12.393Z,99661.59
2023-02-02T22:00:39.647Z,99665.94
2023-02-02T22:03:22.582Z,99665.13
2023-02-02T22:05:49.857Z,99663.41
2023-02-02T22:08:20.726Z,99657.31
2023-02-02T22:10:49.179Z,99667.81
2023-02-02T22:13:20.855Z,99662.59
2023-02-02T22:15:49.265Z,99659.97
2023-02-02T22:18:18.851Z,99662.72
2023-02-02T22:20:48.021Z,99657.53
2023-02-02T22:23:16.593Z,99667.06
2023-02-02T22:25:45.400Z,99668.69
2023-02-02T22:28:12.596Z,99669.62
2023-02-02T22:30:41.001Z,99677.44
2023-02-02T22:33:09.832Z,99691.31
2023-02-02T22:35:37.418Z,99702.72
2023-02-02T22:38:05.104Z,99702.69
2023-02-02T22:40:32.674Z,99714.81
2023-02-02T22:43:01.392Z,99720.00
2023-02-02T22:45:28.699Z,99716.69
2023-02-02T22:47:56.253Z,99715.84
2023-02-02T22:50:25.304Z,99716.69
2023-02-02T22:52:52.858Z,99717.56
2023-02-02T22:55:20.560Z,99720.22
2023-02-02T22:57:48.039Z,99718.53
2023-02-02T23:00:16.871Z,99723.69
2023-02-02T23:02:44.508Z,99734.03
2023-02-02T23:05:13.307Z,99739.31
2023-02-02T23:07:43.932Z,99728.97
2023-02-02T23:10:13.184Z,99736.72
2023-02-02T23:12:41.018Z,99738.44
2023-02-02T23:15:08.940Z,99739.25
2023-02-02T23:17:36.514Z,99747.03
2023-02-02T23:20:05.273Z,99747.94
2023-02-02T23:22:32.627Z,99754.78
2023-02-02T23:25:00.180Z,99758.28
2023-02-02T23:27:27.753Z,99772.19
2023-02-02T23:29:54.979Z,99780.03
2023-02-02T23:32:22.557Z,99780.03
2023-02-02T23:34:49.817Z,99788.66
2023-02-02T23:37:17.113Z,99782.63
2023-02-02T23:39:44.764Z,99802.53
2023-02-02T23:42:12.031Z,99800.78
2023-02-02T23:44:39.280Z,99805.13
2023-02-02T23:47:06.853Z,99812.94
2023-02-02T23:49:34.421Z,99815.56
2023-02-02T23:52:02.172Z,99822.56
2023-02-02T23:54:30.277Z,99816.50
2023-02-02T23:56:57.603Z,99820.88
2023-02-02T23:59:25.098Z,99820.88
